sensor_id;sensor_type;location;lat;lon;timestamp;temperature;humidity
68943;DHT22;60852;52.190;4.422;2024-03-29T00:00:41;10.98;65.93
68943;DHT22;60852;52.190;4.422;2024-03-29T00:03:07;10.95;65.79
68943;DHT22;60852;52.190;4.422;2024-03-29T00:05:35;10.98;65.97
68943;DHT22;60852;52.190;4.422;2024-03-29T00:08:02;11.05;65.76
68943;DHT22;60852;52.190;4.422;2024-03-29T00:10:28;10.98;65.91
68943;DHT22;60852;52.190;4.422;2024-03-29T00:12:53;10.91;66.08
68943;DHT22;60852;52.190;4.422;2024-03-29T00:15:19;10.95;66.69
68943;DHT22;60852;52.190;4.422;2024-03-29T00:17:44;10.99;66.43
68943;DHT22;60852;52.190;4.422;2024-03-29T00:20:10;10.98;66.14
68943;DHT22;60852;52.190;4.422;2024-03-29T00:22:37;10.96;65.96
68943;DHT22;60852;52.190;4.422;2024-03-29T00:25:03;10.96;65.92
68943;DHT22;60852;52.190;4.422;2024-03-29T00:27:29;11.01;65.88
68943;DHT22;60852;52.190;4.422;2024-03-29T00:29:55;10.96;65.98
68943;DHT22;60852;52.190;4.422;2024-03-29T00:32:20;10.98;65.98
68943;DHT22;60852;52.190;4.422;2024-03-29T00:34:52;10.99;65.85
68943;DHT22;60852;52.190;4.422;2024-03-29T00:37:18;11.01;65.82
68943;DHT22;60852;52.190;4.422;2024-03-29T00:39:44;11.03;65.77
68943;DHT22;60852;52.190;4.422;2024-03-29T00:42:10;10.99;65.65
68943;DHT22;60852;52.190;4.422;2024-03-29T00:44:41;11.02;65.53
68943;DHT22;60852;52.190;4.422;2024-03-29T00:47:08;11.10;65.47
68943;DHT22;60852;52.190;4.422;2024-03-29T00:49:33;11.05;65.58
68943;DHT22;60852;52.190;4.422;2024-03-29T00:51:59;10.95;65.60
68943;DHT22;60852;52.190;4.422;2024-03-29T00:54:25;10.93;65.71
68943;DHT22;60852;52.190;4.422;2024-03-29T00:56:51;10.93;65.78
68943;DHT22;60852;52.190;4.422;2024-03-29T00:59:16;10.96;65.78
68943;DHT22;60852;52.190;4.422;2024-03-29T01:01:42;10.86;65.84
68943;DHT22;60852;52.190;4.422;2024-03-29T01:04:08;10.95;65.58
68943;DHT22;60852;52.190;4.422;2024-03-29T01:06:33;10.96;65.44
68943;DHT22;60852;52.190;4.422;2024-03-29T01:09:00;10.92;65.35
68943;DHT22;60852;52.190;4.422;2024-03-29T01:11:25;10.92;65.22
68943;DHT22;60852;52.190;4.422;2024-03-29T01:13:51;10.89;65.41
68943;DHT22;60852;52.190;4.422;2024-03-29T01:16:16;10.92;65.33
68943;DHT22;60852;52.190;4.422;2024-03-29T01:18:43;10.99;65.04
68943;DHT22;60852;52.190;4.422;2024-03-29T01:21:09;10.99;64.77
68943;DHT22;60852;52.190;4.422;2024-03-29T01:23:34;11.01;64.79
68943;DHT22;60852;52.190;4.422;2024-03-29T01:26:00;11.06;64.61
68943;DHT22;60852;52.190;4.422;2024-03-29T01:28:26;11.05;64.55
68943;DHT22;60852;52.190;4.422;2024-03-29T01:30:55;11.13;64.41
68943;DHT22;60852;52.190;4.422;2024-03-29T01:33:20;11.09;64.48
68943;DHT22;60852;52.190;4.422;2024-03-29T01:35:46;11.12;64.33
68943;DHT22;60852;52.190;4.422;2024-03-29T01:38:12;11.18;64.18
68943;DHT22;60852;52.190;4.422;2024-03-29T01:40:37;11.18;64.15
68943;DHT22;60852;52.190;4.422;2024-03-29T01:43:03;11.12;64.09
68943;DHT22;60852;52.190;4.422;2024-03-29T01:45:29;11.15;64.18
68943;DHT22;60852;52.190;4.422;2024-03-29T01:47:55;11.16;64.03
68943;DHT22;60852;52.190;4.422;2024-03-29T01:50:21;11.16;63.92
68943;DHT22;60852;52.190;4.422;2024-03-29T01:52:48;11.23;63.98
68943;DHT22;60852;52.190;4.422;2024-03-29T01:55:15;11.26;63.64
68943;DHT22;60852;52.190;4.422;2024-03-29T01:57:41;11.29;63.61
68943;DHT22;60852;52.190;4.422;2024-03-29T02:00:07;11.31;63.54
68943;DHT22;60852;52.190;4.422;2024-03-29T02:02:33;11.26;63.54
68943;DHT22;60852;52.190;4.422;2024-03-29T02:04:59;11.29;63.51
68943;DHT22;60852;52.190;4.422;2024-03-29T02:07:26;11.30;63.26
68943;DHT22;60852;52.190;4.422;2024-03-29T02:09:52;11.15;63.43
68943;DHT22;60852;52.190;4.422;2024-03-29T02:12:17;11.13;63.43
68943;DHT22;60852;52.190;4.422;2024-03-29T02:14:43;11.09;63.20
68943;DHT22;60852;52.190;4.422;2024-03-29T02:17:09;11.10;63.25
68943;DHT22;60852;52.190;4.422;2024-03-29T02:19:34;11.12;63.02
68943;DHT22;60852;52.190;4.422;2024-03-29T02:22:01;11.23;62.96
68943;DHT22;60852;52.190;4.422;2024-03-29T02:24:30;11.20;63.09
68943;DHT22;60852;52.190;4.422;2024-03-29T02:26:57;11.20;63.18
68943;DHT22;60852;52.190;4.422;2024-03-29T02:29:24;11.20;63.02
68943;DHT22;60852;52.190;4.422;2024-03-29T02:31:50;11.15;63.28
68943;DHT22;60852;52.190;4.422;2024-03-29T02:34:15;11.20;63.26
68943;DHT22;60852;52.190;4.422;2024-03-29T02:36:40;11.22;63.17
68943;DHT22;60852;52.190;4.422;2024-03-29T02:39:09;11.20;63.15
68943;DHT22;60852;52.190;4.422;2024-03-29T02:41:35;11.20;63.04
68943;DHT22;60852;52.190;4.422;2024-03-29T02:44:01;11.16;63.11
68943;DHT22;60852;52.190;4.422;2024-03-29T02:46:27;11.22;63.16
68943;DHT22;60852;52.190;4.422;2024-03-29T02:48:52;11.26;63.11
68943;DHT22;60852;52.190;4.422;2024-03-29T02:51:18;11.20;63.11
68943;DHT22;60852;52.190;4.422;2024-03-29T02:53:44;11.19;63.18
68943;DHT22;60852;52.190;4.422;2024-03-29T02:56:10;11.23;63.15
68943;DHT22;60852;52.190;4.422;2024-03-29T02:58:35;11.24;63.30
68943;DHT22;60852;52.190;4.422;2024-03-29T03:01:09;11.19;63.51
68943;DHT22;60852;52.190;4.422;2024-03-29T03:03:35;11.22;63.44
68943;DHT22;60852;52.190;4.422;2024-03-29T03:06:01;11.16;63.60
68943;DHT22;60852;52.190;4.422;2024-03-29T03:08:28;11.12;63.78
68943;DHT22;60852;52.190;4.422;2024-03-29T03:11:13;11.12;63.63
68943;DHT22;60852;52.190;4.422;2024-03-29T03:13:38;11.13;63.59
68943;DHT22;60852;52.190;4.422;2024-03-29T03:16:04;11.13;63.74
68943;DHT22;60852;52.190;4.422;2024-03-29T03:18:31;11.15;63.80
68943;DHT22;60852;52.190;4.422;2024-03-29T03:20:59;11.13;63.68
68943;DHT22;60852;52.190;4.422;2024-03-29T03:23:24;11.12;63.62
68943;DHT22;60852;52.190;4.422;2024-03-29T03:25:55;11.03;63.58
68943;DHT22;60852;52.190;4.422;2024-03-29T03:28:21;11.03;63.55
68943;DHT22;60852;52.190;4.422;2024-03-29T03:30:50;11.05;63.63
68943;DHT22;60852;52.190;4.422;2024-03-29T03:33:15;11.05;63.35
68943;DHT22;60852;52.190;4.422;2024-03-29T03:35:42;11.06;63.07
68943;DHT22;60852;52.190;4.422;2024-03-29T03:38:07;11.03;63.00
68943;DHT22;60852;52.190;4.422;2024-03-29T03:40:34;11.01;62.94
68943;DHT22;60852;52.190;4.422;2024-03-29T03:43:01;10.93;63.14
68943;DHT22;60852;52.190;4.422;2024-03-29T03:45:26;11.01;63.24
68943;DHT22;60852;52.190;4.422;2024-03-29T03:47:52;11.02;63.14
68943;DHT22;60852;52.190;4.422;2024-03-29T03:50:17;11.02;63.06
68943;DHT22;60852;52.190;4.422;2024-03-29T03:52:43;10.99;63.17
68943;DHT22;60852;52.190;4.422;2024-03-29T03:55:08;11.06;63.19
68943;DHT22;60852;52.190;4.422;2024-03-29T03:57:33;11.08;63.09
68943;DHT22;60852;52.190;4.422;2024-03-29T04:00:01;11.09;63.18
68943;DHT22;60852;52.190;4.422;2024-03-29T04:02:28;11.05;63.30
68943;DHT22;60852;52.190;4.422;2024-03-29T04:04:55;11.08;63.32
68943;DHT22;60852;52.190;4.422;2024-03-29T04:07:21;11.05;63.29
68943;DHT22;60852;52.190;4.422;2024-03-29T04:09:50;10.95;63.42
68943;DHT22;60852;52.190;4.422;2024-03-29T04:12:16;10.91;63.65
68943;DHT22;60852;52.190;4.422;2024-03-29T04:14:41;10.95;63.68
68943;DHT22;60852;52.190;4.422;2024-03-29T04:17:09;10.93;63.61
68943;DHT22;60852;52.190;4.422;2024-03-29T04:19:35;10.95;63.70
68943;DHT22;60852;52.190;4.422;2024-03-29T04:22:02;10.95;63.75
68943;DHT22;60852;52.190;4.422;2024-03-29T04:24:28;10.99;63.71
68943;DHT22;60852;52.190;4.422;2024-03-29T04:26:54;10.88;63.61
68943;DHT22;60852;52.190;4.422;2024-03-29T04:29:22;10.88;63.90
68943;DHT22;60852;52.190;4.422;2024-03-29T04:31:48;10.89;63.99
68943;DHT22;60852;52.190;4.422;2024-03-29T04:34:14;10.86;64.08
68943;DHT22;60852;52.190;4.422;2024-03-29T04:36:39;10.85;64.36
68943;DHT22;60852;52.190;4.422;2024-03-29T04:39:05;10.83;64.33
68943;DHT22;60852;52.190;4.422;2024-03-29T04:41:30;10.75;64.37
68943;DHT22;60852;52.190;4.422;2024-03-29T04:44:00;10.67;64.66
68943;DHT22;60852;52.190;4.422;2024-03-29T04:46:29;10.68;64.76
68943;DHT22;60852;52.190;4.422;2024-03-29T04:48:54;10.64;65.03
68943;DHT22;60852;52.190;4.422;2024-03-29T04:51:20;10.73;64.77
68943;DHT22;60852;52.190;4.422;2024-03-29T04:53:45;10.69;64.85
68943;DHT22;60852;52.190;4.422;2024-03-29T04:56:11;10.67;64.99
68943;DHT22;60852;52.190;4.422;2024-03-29T04:58:36;10.65;65.00
68943;DHT22;60852;52.190;4.422;2024-03-29T05:01:02;10.65;65.13
68943;DHT22;60852;52.190;4.422;2024-03-29T05:03:27;10.60;65.31
68943;DHT22;60852;52.190;4.422;2024-03-29T05:05:54;10.61;65.49
68943;DHT22;60852;52.190;4.422;2024-03-29T05:08:20;10.55;65.48
68943;DHT22;60852;52.190;4.422;2024-03-29T05:10:48;10.62;65.59
68943;DHT22;60852;52.190;4.422;2024-03-29T05:13:17;10.58;65.79
68943;DHT22;60852;52.190;4.422;2024-03-29T05:15:47;10.54;65.84
68943;DHT22;60852;52.190;4.422;2024-03-29T05:18:12;10.47;66.07
68943;DHT22;60852;52.190;4.422;2024-03-29T05:20:38;10.42;66.23
68943;DHT22;60852;52.190;4.422;2024-03-29T05:23:06;10.44;66.16
68943;DHT22;60852;52.190;4.422;2024-03-29T05:25:32;10.51;66.10
68943;DHT22;60852;52.190;4.422;2024-03-29T05:27:57;10.48;66.17
68943;DHT22;60852;52.190;4.422;2024-03-29T05:30:23;10.51;66.23
68943;DHT22;60852;52.190;4.422;2024-03-29T05:32:49;10.47;66.45
68943;DHT22;60852;52.190;4.422;2024-03-29T05:35:16;10.45;66.49
68943;DHT22;60852;52.190;4.422;2024-03-29T05:37:42;10.47;66.42
68943;DHT22;60852;52.190;4.422;2024-03-29T05:40:08;10.45;66.59
68943;DHT22;60852;52.190;4.422;2024-03-29T05:42:34;10.41;66.83
68943;DHT22;60852;52.190;4.422;2024-03-29T05:45:04;10.33;67.02
68943;DHT22;60852;52.190;4.422;2024-03-29T05:47:30;10.29;67.26
68943;DHT22;60852;52.190;4.422;2024-03-29T05:49:56;10.33;67.28
68943;DHT22;60852;52.190;4.422;2024-03-29T05:52:22;10.30;67.41
68943;DHT22;60852;52.190;4.422;2024-03-29T05:54:51;10.25;67.65
68943;DHT22;60852;52.190;4.422;2024-03-29T05:57:19;10.23;68.00
68943;DHT22;60852;52.190;4.422;2024-03-29T05:59:46;10.18;68.25
68943;DHT22;60852;52.190;4.422;2024-03-29T06:02:11;10.12;68.66
68943;DHT22;60852;52.190;4.422;2024-03-29T06:04:37;10.10;68.84
68943;DHT22;60852;52.190;4.422;2024-03-29T06:07:03;10.10;69.12
68943;DHT22;60852;52.190;4.422;2024-03-29T06:09:30;10.10;69.13
68943;DHT22;60852;52.190;4.422;2024-03-29T06:11:56;10.13;69.36
68943;DHT22;60852;52.190;4.422;2024-03-29T06:14:23;10.18;69.41
68943;DHT22;60852;52.190;4.422;2024-03-29T06:17:07;10.27;69.18
68943;DHT22;60852;52.190;4.422;2024-03-29T06:19:51;10.31;69.31
68943;DHT22;60852;52.190;4.422;2024-03-29T06:22:19;10.40;69.24
68943;DHT22;60852;52.190;4.422;2024-03-29T06:24:45;10.42;69.37
68943;DHT22;60852;52.190;4.422;2024-03-29T06:27:11;10.48;69.54
68943;DHT22;60852;52.190;4.422;2024-03-29T06:29:36;10.41;69.73
68943;DHT22;60852;52.190;4.422;2024-03-29T06:32:02;10.40;70.05
68943;DHT22;60852;52.190;4.422;2024-03-29T06:34:30;10.41;70.25
68943;DHT22;60852;52.190;4.422;2024-03-29T06:36:56;10.45;70.26
68943;DHT22;60852;52.190;4.422;2024-03-29T06:39:22;10.45;70.39
68943;DHT22;60852;52.190;4.422;2024-03-29T06:41:47;10.45;70.66
68943;DHT22;60852;52.190;4.422;2024-03-29T06:44:13;10.45;71.01
68943;DHT22;60852;52.190;4.422;2024-03-29T06:46:40;10.47;71.28
68943;DHT22;60852;52.190;4.422;2024-03-29T06:49:05;10.41;71.57
68943;DHT22;60852;52.190;4.422;2024-03-29T06:51:31;10.52;71.62
68943;DHT22;60852;52.190;4.422;2024-03-29T06:53:56;10.54;71.76
68943;DHT22;60852;52.190;4.422;2024-03-29T06:56:22;10.57;71.87
68943;DHT22;60852;52.190;4.422;2024-03-29T06:58:47;10.64;72.01
68943;DHT22;60852;52.190;4.422;2024-03-29T07:01:13;10.71;71.85
68943;DHT22;60852;52.190;4.422;2024-03-29T07:03:39;10.67;72.22
68943;DHT22;60852;52.190;4.422;2024-03-29T07:06:05;10.73;72.20
68943;DHT22;60852;52.190;4.422;2024-03-29T07:08:30;10.75;72.13
68943;DHT22;60852;52.190;4.422;2024-03-29T07:11:00;10.83;72.35
68943;DHT22;60852;52.190;4.422;2024-03-29T07:13:29;10.91;72.24
68943;DHT22;60852;52.190;4.422;2024-03-29T07:15:57;10.91;72.06
68943;DHT22;60852;52.190;4.422;2024-03-29T07:18:23;10.86;72.13
68943;DHT22;60852;52.190;4.422;2024-03-29T07:20:49;10.96;72.41
68943;DHT22;60852;52.190;4.422;2024-03-29T07:23:16;11.05;71.94
68943;DHT22;60852;52.190;4.422;2024-03-29T07:25:44;11.16;71.91
68943;DHT22;60852;52.190;4.422;2024-03-29T07:28:09;11.23;71.76
68943;DHT22;60852;52.190;4.422;2024-03-29T07:30:36;11.31;71.72
68943;DHT22;60852;52.190;4.422;2024-03-29T07:33:04;11.37;70.90
68943;DHT22;60852;52.190;4.422;2024-03-29T07:35:29;11.26;71.27
68943;DHT22;60852;52.190;4.422;2024-03-29T07:37:56;11.20;71.55
68943;DHT22;60852;52.190;4.422;2024-03-29T07:40:22;11.26;71.60
68943;DHT22;60852;52.190;4.422;2024-03-29T07:42:49;11.22;71.37
68943;DHT22;60852;52.190;4.422;2024-03-29T07:45:16;11.23;71.47
68943;DHT22;60852;52.190;4.422;2024-03-29T07:47:44;11.20;70.94
68943;DHT22;60852;52.190;4.422;2024-03-29T07:50:11;11.16;71.50
68943;DHT22;60852;52.190;4.422;2024-03-29T07:52:38;11.19;71.40
68943;DHT22;60852;52.190;4.422;2024-03-29T07:55:03;11.15;71.30
68943;DHT22;60852;52.190;4.422;2024-03-29T07:57:30;11.15;71.61
68943;DHT22;60852;52.190;4.422;2024-03-29T07:59:56;11.18;71.69
68943;DHT22;60852;52.190;4.422;2024-03-29T08:02:22;11.33;71.33
68943;DHT22;60852;52.190;4.422;2024-03-29T08:04:47;11.47;71.48
68943;DHT22;60852;52.190;4.422;2024-03-29T08:07:14;11.61;71.03
68943;DHT22;60852;52.190;4.422;2024-03-29T08:09:42;11.73;70.55
68943;DHT22;60852;52.190;4.422;2024-03-29T08:12:07;11.85;70.55
68943;DHT22;60852;52.190;4.422;2024-03-29T08:14:33;11.94;69.91
68943;DHT22;60852;52.190;4.422;2024-03-29T08:16:58;12.05;69.89
68943;DHT22;60852;52.190;4.422;2024-03-29T08:19:29;12.08;69.28
68943;DHT22;60852;52.190;4.422;2024-03-29T08:21:56;12.19;69.11
68943;DHT22;60852;52.190;4.422;2024-03-29T08:24:26;12.12;68.76
68943;DHT22;60852;52.190;4.422;2024-03-29T08:26:52;12.18;68.53
68943;DHT22;60852;52.190;4.422;2024-03-29T08:29:17;12.22;68.79
68943;DHT22;60852;52.190;4.422;2024-03-29T08:31:43;12.22;68.42
68943;DHT22;60852;52.190;4.422;2024-03-29T08:34:08;12.26;68.59
68943;DHT22;60852;52.190;4.422;2024-03-29T08:36:39;12.35;68.60
68943;DHT22;60852;52.190;4.422;2024-03-29T08:39:05;12.38;68.18
68943;DHT22;60852;52.190;4.422;2024-03-29T08:41:31;12.36;68.04
68943;DHT22;60852;52.190;4.422;2024-03-29T08:43:56;12.26;67.41
68943;DHT22;60852;52.190;4.422;2024-03-29T08:46:22;12.18;68.21
68943;DHT22;60852;52.190;4.422;2024-03-29T08:48:50;12.19;67.92
68943;DHT22;60852;52.190;4.422;2024-03-29T08:51:15;12.28;68.15
68943;DHT22;60852;52.190;4.422;2024-03-29T08:53:41;12.32;67.88
68943;DHT22;60852;52.190;4.422;2024-03-29T08:56:07;12.39;67.94
68943;DHT22;60852;52.190;4.422;2024-03-29T08:58:32;12.49;67.83
68943;DHT22;60852;52.190;4.422;2024-03-29T09:00:58;12.50;67.62
68943;DHT22;60852;52.190;4.422;2024-03-29T09:03:24;12.57;67.36
68943;DHT22;60852;52.190;4.422;2024-03-29T09:05:51;12.57;67.30
68943;DHT22;60852;52.190;4.422;2024-03-29T09:08:17;12.43;66.31
68943;DHT22;60852;52.190;4.422;2024-03-29T09:10:43;12.30;66.03
68943;DHT22;60852;52.190;4.422;2024-03-29T09:13:10;12.21;65.72
68943;DHT22;60852;52.190;4.422;2024-03-29T09:15:36;12.25;66.47
68943;DHT22;60852;52.190;4.422;2024-03-29T09:18:02;12.18;66.44
68943;DHT22;60852;52.190;4.422;2024-03-29T09:20:39;12.19;66.65
68943;DHT22;60852;52.190;4.422;2024-03-29T09:23:04;12.15;66.69
68943;DHT22;60852;52.190;4.422;2024-03-29T09:25:31;12.05;67.16
68943;DHT22;60852;52.190;4.422;2024-03-29T09:27:57;12.17;67.38
68943;DHT22;60852;52.190;4.422;2024-03-29T09:30:23;12.24;67.51
68943;DHT22;60852;52.190;4.422;2024-03-29T09:32:49;12.33;67.73
68943;DHT22;60852;52.190;4.422;2024-03-29T09:35:17;12.40;67.57
68943;DHT22;60852;52.190;4.422;2024-03-29T09:37:43;12.42;67.32
68943;DHT22;60852;52.190;4.422;2024-03-29T09:40:10;12.63;67.46
68943;DHT22;60852;52.190;4.422;2024-03-29T09:42:38;12.77;67.43
68943;DHT22;60852;52.190;4.422;2024-03-29T09:45:05;12.88;66.85
68943;DHT22;60852;52.190;4.422;2024-03-29T09:47:32;12.75;66.58
68943;DHT22;60852;52.190;4.422;2024-03-29T09:50:03;12.56;67.32
68943;DHT22;60852;52.190;4.422;2024-03-29T09:52:31;12.50;67.66
68943;DHT22;60852;52.190;4.422;2024-03-29T09:54:58;12.52;67.81
68943;DHT22;60852;52.190;4.422;2024-03-29T09:57:25;12.69;67.67
68943;DHT22;60852;52.190;4.422;2024-03-29T09:59:55;12.79;67.97
68943;DHT22;60852;52.190;4.422;2024-03-29T10:02:21;12.91;67.58
68943;DHT22;60852;52.190;4.422;2024-03-29T10:04:51;12.63;66.74
68943;DHT22;60852;52.190;4.422;2024-03-29T10:07:19;12.36;67.48
68943;DHT22;60852;52.190;4.422;2024-03-29T10:09:45;12.61;67.95
68943;DHT22;60852;52.190;4.422;2024-03-29T10:12:11;12.70;67.48
68943;DHT22;60852;52.190;4.422;2024-03-29T10:14:46;12.96;67.48
68943;DHT22;60852;52.190;4.422;2024-03-29T10:17:17;12.96;66.94
68943;DHT22;60852;52.190;4.422;2024-03-29T10:19:43;12.84;66.32
68943;DHT22;60852;52.190;4.422;2024-03-29T10:22:09;12.57;67.30
68943;DHT22;60852;52.190;4.422;2024-03-29T10:24:36;12.48;67.49
68943;DHT22;60852;52.190;4.422;2024-03-29T10:27:02;12.48;67.53
68943;DHT22;60852;52.190;4.422;2024-03-29T10:29:28;12.70;66.72
68943;DHT22;60852;52.190;4.422;2024-03-29T10:31:58;13.06;66.25
68943;DHT22;60852;52.190;4.422;2024-03-29T10:34:26;13.49;65.84
68943;DHT22;60852;52.190;4.422;2024-03-29T10:36:52;13.90;65.74
68943;DHT22;60852;52.190;4.422;2024-03-29T10:39:18;14.09;64.21
68943;DHT22;60852;52.190;4.422;2024-03-29T10:41:46;13.79;64.46
68943;DHT22;60852;52.190;4.422;2024-03-29T10:44:13;13.90;64.45
68943;DHT22;60852;52.190;4.422;2024-03-29T10:46:40;13.75;64.61
68943;DHT22;60852;52.190;4.422;2024-03-29T10:49:08;13.58;65.21
68943;DHT22;60852;52.190;4.422;2024-03-29T10:51:41;13.69;65.30
68943;DHT22;60852;52.190;4.422;2024-03-29T10:54:09;13.79;63.85
68943;DHT22;60852;52.190;4.422;2024-03-29T10:56:36;13.96;64.14
68943;DHT22;60852;52.190;4.422;2024-03-29T10:59:19;13.75;64.01
68943;DHT22;60852;52.190;4.422;2024-03-29T11:01:53;13.65;64.18
68943;DHT22;60852;52.190;4.422;2024-03-29T11:04:22;13.69;64.02
68943;DHT22;60852;52.190;4.422;2024-03-29T11:06:54;13.73;64.14
68943;DHT22;60852;52.190;4.422;2024-03-29T11:09:20;13.66;64.02
68943;DHT22;60852;52.190;4.422;2024-03-29T11:11:50;13.73;63.21
68943;DHT22;60852;52.190;4.422;2024-03-29T11:14:20;13.90;63.01
68943;DHT22;60852;52.190;4.422;2024-03-29T11:16:49;14.10;62.46
68943;DHT22;60852;52.190;4.422;2024-03-29T11:19:16;14.09;61.62
68943;DHT22;60852;52.190;4.422;2024-03-29T11:21:43;14.23;60.93
68943;DHT22;60852;52.190;4.422;2024-03-29T11:24:13;14.33;60.23
68943;DHT22;60852;52.190;4.422;2024-03-29T11:26:41;14.24;60.56
68943;DHT22;60852;52.190;4.422;2024-03-29T11:29:18;13.95;60.38
68943;DHT22;60852;52.190;4.422;2024-03-29T11:31:45;13.85;60.90
68943;DHT22;60852;52.190;4.422;2024-03-29T11:34:12;13.91;61.47
68943;DHT22;60852;52.190;4.422;2024-03-29T11:36:39;14.12;61.57
68943;DHT22;60852;52.190;4.422;2024-03-29T11:39:05;14.37;61.31
68943;DHT22;60852;52.190;4.422;2024-03-29T11:41:30;14.45;60.16
68943;DHT22;60852;52.190;4.422;2024-03-29T11:43:57;14.40;59.53
68943;DHT22;60852;52.190;4.422;2024-03-29T11:46:24;14.36;60.53
68943;DHT22;60852;52.190;4.422;2024-03-29T11:48:50;14.47;60.35
68943;DHT22;60852;52.190;4.422;2024-03-29T11:51:22;14.61;60.00
68943;DHT22;60852;52.190;4.422;2024-03-29T11:53:50;14.47;58.83
68943;DHT22;60852;52.190;4.422;2024-03-29T11:56:20;14.44;59.28
68943;DHT22;60852;52.190;4.422;2024-03-29T11:58:46;14.45;59.71
68943;DHT22;60852;52.190;4.422;2024-03-29T12:01:13;14.55;59.60
68943;DHT22;60852;52.190;4.422;2024-03-29T12:03:41;14.68;58.97
68943;DHT22;60852;52.190;4.422;2024-03-29T12:06:08;14.65;58.39
68943;DHT22;60852;52.190;4.422;2024-03-29T12:08:37;14.75;58.90
68943;DHT22;60852;52.190;4.422;2024-03-29T12:11:03;14.95;58.60
68943;DHT22;60852;52.190;4.422;2024-03-29T12:13:30;15.16;58.16
68943;DHT22;60852;52.190;4.422;2024-03-29T12:15:56;15.18;57.80
68943;DHT22;60852;52.190;4.422;2024-03-29T12:18:24;15.22;58.74
68943;DHT22;60852;52.190;4.422;2024-03-29T12:20:51;15.10;58.21
68943;DHT22;60852;52.190;4.422;2024-03-29T12:23:21;15.13;58.93
68943;DHT22;60852;52.190;4.422;2024-03-29T12:25:49;15.19;58.39
68943;DHT22;60852;52.190;4.422;2024-03-29T12:28:15;15.12;57.68
68943;DHT22;60852;52.190;4.422;2024-03-29T12:30:43;15.20;58.43
68943;DHT22;60852;52.190;4.422;2024-03-29T12:33:15;15.36;57.88
68943;DHT22;60852;52.190;4.422;2024-03-29T12:35:51;15.40;57.14
68943;DHT22;60852;52.190;4.422;2024-03-29T12:38:21;15.18;57.30
68943;DHT22;60852;52.190;4.422;2024-03-29T12:40:48;15.18;58.16
68943;DHT22;60852;52.190;4.422;2024-03-29T12:43:19;15.10;58.24
68943;DHT22;60852;52.190;4.422;2024-03-29T12:45:45;14.99;59.79
68943;DHT22;60852;52.190;4.422;2024-03-29T12:48:16;14.95;60.00
68943;DHT22;60852;52.190;4.422;2024-03-29T12:50:44;14.82;58.90
68943;DHT22;60852;52.190;4.422;2024-03-29T12:53:12;14.65;59.41
68943;DHT22;60852;52.190;4.422;2024-03-29T12:55:40;14.67;59.67
68943;DHT22;60852;52.190;4.422;2024-03-29T12:58:07;14.64;59.78
68943;DHT22;60852;52.190;4.422;2024-03-29T13:00:35;14.74;59.32
68943;DHT22;60852;52.190;4.422;2024-03-29T13:03:02;14.88;59.32
68943;DHT22;60852;52.190;4.422;2024-03-29T13:05:27;15.07;58.21
68943;DHT22;60852;52.190;4.422;2024-03-29T13:07:57;15.26;58.26
68943;DHT22;60852;52.190;4.422;2024-03-29T13:10:23;15.27;58.06
68943;DHT22;60852;52.190;4.422;2024-03-29T13:12:48;15.27;58.48
68943;DHT22;60852;52.190;4.422;2024-03-29T13:15:26;15.36;57.67
68943;DHT22;60852;52.190;4.422;2024-03-29T13:17:56;15.47;57.33
68943;DHT22;60852;52.190;4.422;2024-03-29T13:20:23;15.40;56.44
68943;DHT22;60852;52.190;4.422;2024-03-29T13:22:50;15.42;56.00
68943;DHT22;60852;52.190;4.422;2024-03-29T13:25:20;15.36;56.81
68943;DHT22;60852;52.190;4.422;2024-03-29T13:27:48;15.33;58.55
68943;DHT22;60852;52.190;4.422;2024-03-29T13:30:15;15.36;57.63
68943;DHT22;60852;52.190;4.422;2024-03-29T13:32:43;15.44;57.39
68943;DHT22;60852;52.190;4.422;2024-03-29T13:35:11;15.57;57.07
68943;DHT22;60852;52.190;4.422;2024-03-29T13:37:42;15.57;55.79
68943;DHT22;60852;52.190;4.422;2024-03-29T13:40:15;15.39;55.75
68943;DHT22;60852;52.190;4.422;2024-03-29T13:42:41;15.47;55.90
68943;DHT22;60852;52.190;4.422;2024-03-29T13:45:07;15.44;54.58
68943;DHT22;60852;52.190;4.422;2024-03-29T13:47:39;15.29;54.44
68943;DHT22;60852;52.190;4.422;2024-03-29T13:50:05;15.30;55.76
68943;DHT22;60852;52.190;4.422;2024-03-29T13:52:31;15.36;55.94
68943;DHT22;60852;52.190;4.422;2024-03-29T13:54:58;15.51;56.27
68943;DHT22;60852;52.190;4.422;2024-03-29T13:57:23;15.70;55.35
68943;DHT22;60852;52.190;4.422;2024-03-29T13:59:48;15.65;55.30
68943;DHT22;60852;52.190;4.422;2024-03-29T14:02:19;15.77;55.20
68943;DHT22;60852;52.190;4.422;2024-03-29T14:04:45;15.73;53.95
68943;DHT22;60852;52.190;4.422;2024-03-29T14:07:14;15.74;53.59
68943;DHT22;60852;52.190;4.422;2024-03-29T14:09:41;15.78;54.19
68943;DHT22;60852;52.190;4.422;2024-03-29T14:12:07;15.74;53.94
68943;DHT22;60852;52.190;4.422;2024-03-29T14:14:33;15.67;53.33
68943;DHT22;60852;52.190;4.422;2024-03-29T14:16:59;15.43;53.55
68943;DHT22;60852;52.190;4.422;2024-03-29T14:19:30;15.32;53.76
68943;DHT22;60852;52.190;4.422;2024-03-29T14:21:56;15.36;54.42
68943;DHT22;60852;52.190;4.422;2024-03-29T14:24:21;15.47;54.47
68943;DHT22;60852;52.190;4.422;2024-03-29T14:26:50;15.54;54.67
68943;DHT22;60852;52.190;4.422;2024-03-29T14:29:16;15.58;54.75
68943;DHT22;60852;52.190;4.422;2024-03-29T14:31:43;15.57;55.07
68943;DHT22;60852;52.190;4.422;2024-03-29T14:34:10;15.55;55.31
68943;DHT22;60852;52.190;4.422;2024-03-29T14:36:36;15.42;56.01
68943;DHT22;60852;52.190;4.422;2024-03-29T14:39:01;15.36;55.95
68943;DHT22;60852;52.190;4.422;2024-03-29T14:41:28;15.34;56.14
68943;DHT22;60852;52.190;4.422;2024-03-29T14:43:53;15.34;55.42
68943;DHT22;60852;52.190;4.422;2024-03-29T14:46:21;15.33;55.88
68943;DHT22;60852;52.190;4.422;2024-03-29T14:48:47;15.34;55.41
68943;DHT22;60852;52.190;4.422;2024-03-29T14:51:12;15.44;55.59
68943;DHT22;60852;52.190;4.422;2024-03-29T14:53:38;15.60;55.40
68943;DHT22;60852;52.190;4.422;2024-03-29T14:56:04;15.80;55.30
68943;DHT22;60852;52.190;4.422;2024-03-29T14:58:31;15.91;55.00
68943;DHT22;60852;52.190;4.422;2024-03-29T15:00:57;15.97;54.62
68943;DHT22;60852;52.190;4.422;2024-03-29T15:03:22;15.75;53.58
68943;DHT22;60852;52.190;4.422;2024-03-29T15:05:49;15.71;54.00
68943;DHT22;60852;52.190;4.422;2024-03-29T15:08:15;15.63;53.53
68943;DHT22;60852;52.190;4.422;2024-03-29T15:10:43;15.55;53.70
68943;DHT22;60852;52.190;4.422;2024-03-29T15:13:08;15.46;54.12
68943;DHT22;60852;52.190;4.422;2024-03-29T15:15:34;15.54;54.63
68943;DHT22;60852;52.190;4.422;2024-03-29T15:18:03;15.64;54.07
68943;DHT22;60852;52.190;4.422;2024-03-29T15:20:28;15.73;53.24
68943;DHT22;60852;52.190;4.422;2024-03-29T15:22:54;15.78;52.38
68943;DHT22;60852;52.190;4.422;2024-03-29T15:25:21;15.80;53.07
68943;DHT22;60852;52.190;4.422;2024-03-29T15:27:47;15.78;53.79